createdAt,value
2022-12-15T00:00:03.725Z,63.19
2022-12-15T00:02:49.241Z,63.35
2022-12-15T00:05:35.196Z,63.02
2022-12-15T00:08:29.295Z,62.93
2022-12-15T00:11:15.224Z,63.02
2022-12-15T00:14:00.467Z,63.18
2022-12-15T00:16:46.507Z,63.41
2022-12-15T00:19:32.066Z,63.34
2022-12-15T00:22:17.353Z,63.40
2022-12-15T00:25:04.326Z,63.29
2022-12-15T00:27:49.647Z,63.58
2022-12-15T00:30:35.533Z,63.44
2022-12-15T00:33:27.632Z,63.42
2022-12-15T00:36:13.463Z,63.49
2022-12-15T00:38:42.220Z,63.59
2022-12-15T00:41:12.488Z,63.69
2022-12-15T00:43:40.645Z,63.37
2022-12-15T00:46:27.388Z,63.43
2022-12-15T00:48:55.767Z,63.52
2022-12-15T00:51:41.688Z,63.51
2022-12-15T00:54:27.332Z,63.52
2022-12-15T00:57:14.281Z,63.25
2022-12-15T00:59:59.880Z,63.41
2022-12-15T01:02:45.490Z,63.93
2022-12-15T01:05:31.346Z,64.63
2022-12-15T01:08:18.084Z,64.67
2022-12-15T01:11:03.563Z,64.54
2022-12-15T01:13:50.765Z,64.29
2022-12-15T01:16:36.266Z,64.01
2022-12-15T01:19:21.851Z,63.60
2022-12-15T01:21:49.974Z,63.74
2022-12-15T01:24:18.136Z,63.54
2022-12-15T01:26:46.321Z,63.12
2022-12-15T01:29:15.875Z,63.10
2022-12-15T01:31:44.266Z,62.93
2022-12-15T01:34:12.579Z,62.98
2022-12-15T01:36:40.744Z,62.76
2022-12-15T01:39:08.843Z,62.65
2022-12-15T01:41:36.263Z,62.67
2022-12-15T01:44:21.124Z,62.77
2022-12-15T01:46:53.143Z,62.92
2022-12-15T01:49:26.178Z,62.85
2022-12-15T01:51:58.568Z,62.67
2022-12-15T01:54:30.408Z,63.08
2022-12-15T01:57:04.141Z,62.92
2022-12-15T01:59:36.465Z,63.06
2022-12-15T02:02:04.910Z,63.06
2022-12-15T02:04:34.917Z,63.06
2022-12-15T02:07:03.041Z,62.98
2022-12-15T02:09:31.867Z,63.14
2022-12-15T02:12:12.139Z,63.25
2022-12-15T02:14:51.897Z,62.97
2022-12-15T02:17:31.140Z,62.98
2022-12-15T02:20:36.556Z,63.02
2022-12-15T02:23:30.619Z,62.78
2022-12-15T02:26:30.087Z,62.91
2022-12-15T02:29:10.939Z,62.97
2022-12-15T02:31:53.938Z,63.19
2022-12-15T02:34:28.315Z,63.20
2022-12-15T02:37:00.760Z,62.76
2022-12-15T02:39:30.420Z,62.72
2022-12-15T02:41:58.564Z,62.40
2022-12-15T02:44:31.652Z,62.62
2022-12-15T02:47:18.951Z,62.34
2022-12-15T02:50:02.121Z,62.47
2022-12-15T02:52:44.803Z,62.52
2022-12-15T02:55:21.279Z,62.11
2022-12-15T02:57:56.224Z,62.07
2022-12-15T03:00:24.412Z,62.15
2022-12-15T03:02:56.450Z,61.98
2022-12-15T03:05:26.073Z,62.17
2022-12-15T03:07:55.278Z,61.73
2022-12-15T03:10:25.597Z,62.27
2022-12-15T03:12:54.561Z,62.40
2022-12-15T03:15:22.668Z,62.13
2022-12-15T03:17:50.887Z,62.51
2022-12-15T03:20:20.747Z,62.40
2022-12-15T03:22:48.909Z,62.57
2022-12-15T03:25:17.112Z,62.77
2022-12-15T03:27:47.424Z,62.75
2022-12-15T03:30:16.014Z,62.79
2022-12-15T03:32:44.092Z,62.87
2022-12-15T03:35:13.012Z,63.05
2022-12-15T03:37:43.234Z,62.99
2022-12-15T03:40:13.957Z,62.96
2022-12-15T03:42:51.118Z,63.11
2022-12-15T03:45:20.935Z,63.22
2022-12-15T03:47:50.158Z,63.03
2022-12-15T03:50:21.308Z,63.28
2022-12-15T03:52:53.558Z,63.07
2022-12-15T03:55:22.800Z,63.24
2022-12-15T03:57:51.316Z,62.99
2022-12-15T04:00:21.032Z,63.03
2022-12-15T04:02:50.805Z,63.20
2022-12-15T04:05:21.226Z,63.87
2022-12-15T04:07:49.376Z,64.03
2022-12-15T04:10:19.483Z,63.95
2022-12-15T04:12:47.695Z,63.82
2022-12-15T04:15:16.147Z,63.65
2022-12-15T04:17:44.281Z,63.38
2022-12-15T04:20:11.933Z,63.23
2022-12-15T04:22:41.860Z,63.03
2022-12-15T04:25:29.812Z,62.99
2022-12-15T04:28:16.837Z,62.76
2022-12-15T04:31:07.456Z,62.35
2022-12-15T04:33:53.957Z,62.22
2022-12-15T04:36:39.807Z,62.18
2022-12-15T04:39:25.709Z,61.99
2022-12-15T04:42:13.130Z,62.00
2022-12-15T04:45:00.303Z,61.87
2022-12-15T04:47:46.142Z,61.71
2022-12-15T04:50:31.497Z,61.53
2022-12-15T04:53:26.940Z,61.55
2022-12-15T04:56:18.166Z,61.68
2022-12-15T04:59:05.791Z,61.58
2022-12-15T05:01:52.938Z,61.34
2022-12-15T05:04:38.664Z,61.17
2022-12-15T05:07:24.323Z,61.03
2022-12-15T05:10:14.951Z,60.81
2022-12-15T05:13:01.190Z,60.79
2022-12-15T05:15:46.826Z,60.63
2022-12-15T05:18:34.281Z,60.52
2022-12-15T05:21:19.839Z,60.55
2022-12-15T05:24:05.464Z,60.14
2022-12-15T05:26:53.206Z,60.21
2022-12-15T05:29:39.963Z,60.02
2022-12-15T05:32:08.492Z,59.91
2022-12-15T05:34:38.455Z,59.96
2022-12-15T05:37:07.437Z,60.02
2022-12-15T05:39:35.925Z,59.84
2022-12-15T05:42:04.372Z,59.76
2022-12-15T05:44:32.469Z,59.87
2022-12-15T05:47:00.600Z,59.88
2022-12-15T05:49:28.749Z,59.80
2022-12-15T05:51:58.474Z,59.73
2022-12-15T05:54:26.651Z,59.84
2022-12-15T05:56:54.740Z,59.81
2022-12-15T05:59:23.056Z,59.86
2022-12-15T06:01:51.493Z,60.03
2022-12-15T06:04:19.902Z,60.01
2022-12-15T06:06:48.154Z,59.93
2022-12-15T06:09:17.982Z,59.98
2022-12-15T06:11:46.678Z,59.73
2022-12-15T06:14:15.095Z,59.41
2022-12-15T06:16:50.838Z,59.56
2022-12-15T06:19:20.727Z,59.29
2022-12-15T06:21:48.902Z,59.38
2022-12-15T06:24:18.417Z,59.31
2022-12-15T06:26:46.888Z,59.54
2022-12-15T06:29:18.403Z,59.48
2022-12-15T06:31:46.841Z,59.69
2022-12-15T06:34:16.563Z,59.86
2022-12-15T06:36:45.196Z,60.06
2022-12-15T06:39:15.172Z,59.99
2022-12-15T06:41:45.390Z,60.05
2022-12-15T06:44:15.821Z,60.23
2022-12-15T06:46:45.747Z,60.36
2022-12-15T06:49:14.969Z,60.39
2022-12-15T06:51:44.280Z,60.39
2022-12-15T06:54:12.723Z,60.49
2022-12-15T06:56:41.086Z,60.24
2022-12-15T06:59:12.425Z,60.52
2022-12-15T07:01:41.935Z,60.55
2022-12-15T07:04:11.377Z,60.38
2022-12-15T07:06:40.646Z,60.52
2022-12-15T07:09:14.074Z,60.46
2022-12-15T07:11:42.248Z,60.64
2022-12-15T07:14:12.249Z,60.92
2022-12-15T07:16:41.237Z,60.92
2022-12-15T07:19:13.495Z,60.71
2022-12-15T07:21:42.440Z,60.52
2022-12-15T07:24:12.300Z,60.24
2022-12-15T07:26:40.865Z,60.10
2022-12-15T07:29:09.372Z,59.98
2022-12-15T07:31:39.110Z,59.73
2022-12-15T07:34:07.260Z,59.47
2022-12-15T07:36:35.430Z,59.47
2022-12-15T07:39:04.054Z,59.34
2022-12-15T07:41:32.656Z,59.29
2022-12-15T07:44:02.283Z,59.08
2022-12-15T07:46:30.493Z,59.09
2022-12-15T07:49:00.058Z,58.85
2022-12-15T07:51:28.315Z,58.79
2022-12-15T07:53:57.115Z,58.81
2022-12-15T07:56:25.201Z,58.66
2022-12-15T07:58:53.347Z,58.48
2022-12-15T08:01:21.875Z,58.37
2022-12-15T08:03:50.505Z,58.27
2022-12-15T08:06:20.055Z,58.04
2022-12-15T08:08:50.766Z,57.98
2022-12-15T08:11:21.883Z,58.06
2022-12-15T08:14:10.568Z,58.05
2022-12-15T08:16:39.183Z,58.08
2022-12-15T08:19:10.326Z,58.34
2022-12-15T08:21:40.303Z,58.48
2022-12-15T08:24:09.141Z,58.50
2022-12-15T08:26:38.879Z,58.57
2022-12-15T08:29:48.806Z,58.52
2022-12-15T08:31:57.418Z,58.83
2022-12-15T08:34:25.834Z,58.85
2022-12-15T08:36:55.557Z,58.97
2022-12-15T08:39:23.897Z,58.93
2022-12-15T08:41:52.129Z,59.08
2022-12-15T08:44:20.184Z,59.09
2022-12-15T08:46:48.248Z,59.24
2022-12-15T08:49:21.420Z,59.29
2022-12-15T08:51:50.700Z,59.30
2022-12-15T08:54:21.448Z,59.33
2022-12-15T08:56:50.541Z,59.26
2022-12-15T08:59:19.236Z,59.25
2022-12-15T09:01:48.271Z,59.36
2022-12-15T09:04:16.837Z,59.62
2022-12-15T09:06:50.223Z,59.36
2022-12-15T09:09:21.121Z,59.28
2022-12-15T09:11:50.092Z,59.45
2022-12-15T09:14:21.562Z,59.45
2022-12-15T09:16:53.823Z,59.43
2022-12-15T09:19:22.010Z,59.61
2022-12-15T09:21:50.244Z,59.50
2022-12-15T09:24:28.847Z,59.55
2022-12-15T09:27:04.416Z,59.42
2022-12-15T09:29:32.816Z,59.57
2022-12-15T09:32:01.153Z,59.36
2022-12-15T09:34:29.500Z,59.33
2022-12-15T09:36:58.772Z,59.47
2022-12-15T09:39:29.901Z,59.46
2022-12-15T09:42:01.491Z,59.43
2022-12-15T09:44:34.280Z,59.58
2022-12-15T09:47:12.102Z,59.41
2022-12-15T09:49:49.318Z,59.33
2022-12-15T09:52:19.490Z,59.21
2022-12-15T09:54:47.861Z,59.21
2022-12-15T09:57:26.025Z,59.33
2022-12-15T10:00:07.262Z,59.08
2022-12-15T10:02:56.905Z,59.29
2022-12-15T10:08:31.554Z,59.26
2022-12-15T10:11:01.860Z,59.11
2022-12-15T10:13:40.042Z,59.09
2022-12-15T10:16:20.787Z,59.33
2022-12-15T10:19:02.017Z,59.20
2022-12-15T10:21:32.525Z,59.24
2022-12-15T10:24:11.387Z,59.32
2022-12-15T10:26:42.485Z,59.47
2022-12-15T10:29:22.443Z,59.50
2022-12-15T10:31:56.608Z,59.20
2022-12-15T10:34:29.531Z,59.41
2022-12-15T10:36:58.853Z,59.35
2022-12-15T10:39:39.413Z,59.34
2022-12-15T10:42:13.840Z,59.53
2022-12-15T10:44:44.295Z,59.46
2022-12-15T10:50:24.215Z,59.70
2022-12-15T10:52:53.069Z,59.77
2022-12-15T10:55:39.308Z,59.78
2022-12-15T10:58:18.183Z,59.96
2022-12-15T11:00:50.824Z,59.94
2022-12-15T11:03:26.303Z,60.05
2022-12-15T11:05:55.651Z,60.04
2022-12-15T11:08:25.892Z,60.18
2022-12-15T11:14:14.950Z,60.32
2022-12-15T11:16:52.768Z,60.30
2022-12-15T11:19:34.934Z,60.40
2022-12-15T11:22:12.005Z,60.31
2022-12-15T11:24:45.300Z,60.31
2022-12-15T11:27:20.839Z,60.34
2022-12-15T11:30:05.134Z,60.60
2022-12-15T11:32:37.811Z,60.27
2022-12-15T11:35:13.492Z,60.76
2022-12-15T11:37:43.684Z,60.82
2022-12-15T11:40:36.383Z,61.41
2022-12-15T11:43:40.460Z,61.08
2022-12-15T11:46:21.766Z,60.59
2022-12-15T11:49:14.997Z,60.44
2022-12-15T11:51:50.874Z,60.38
2022-12-15T11:54:26.432Z,60.28
2022-12-15T11:57:02.082Z,60.10
2022-12-15T11:59:46.197Z,59.95
2022-12-15T12:02:35.724Z,59.56
2022-12-15T12:05:23.802Z,59.32
2022-12-15T12:08:02.754Z,59.36
2022-12-15T12:10:38.940Z,59.17
2022-12-15T12:13:15.970Z,59.05
2022-12-15T12:15:52.648Z,58.87
2022-12-15T12:18:24.355Z,58.70
2022-12-15T12:20:59.442Z,58.78
2022-12-15T12:23:35.694Z,58.73
2022-12-15T12:26:11.648Z,58.92
2022-12-15T12:28:48.626Z,58.97
2022-12-15T12:31:27.659Z,59.02
2022-12-15T12:33:59.214Z,59.09
2022-12-15T12:36:27.579Z,59.60
2022-12-15T12:38:59.401Z,59.40
2022-12-15T12:41:37.912Z,59.47
2022-12-15T12:44:13.726Z,59.50
2022-12-15T12:46:46.074Z,59.67
2022-12-15T12:49:26.408Z,59.62
2022-12-15T12:51:58.716Z,59.69
2022-12-15T12:55:03.233Z,59.68
2022-12-15T12:57:36.106Z,59.62
2022-12-15T13:00:15.647Z,59.87
2022-12-15T13:02:54.599Z,59.74
2022-12-15T13:05:29.734Z,59.75
2022-12-15T13:08:19.124Z,59.84
2022-12-15T13:10:50.886Z,59.98
2022-12-15T13:13:42.009Z,59.82
2022-12-15T13:16:14.570Z,60.02
2022-12-15T13:19:02.148Z,59.93
2022-12-15T13:21:54.277Z,60.06
2022-12-15T13:24:34.586Z,60.03
2022-12-15T13:27:21.899Z,60.07
2022-12-15T13:30:00.736Z,60.13
2022-12-15T13:32:39.697Z,60.03
2022-12-15T13:35:23.849Z,59.92
2022-12-15T13:37:54.083Z,59.80
2022-12-15T13:40:35.194Z,59.81
2022-12-15T13:43:31.953Z,59.93
2022-12-15T13:46:03.404Z,59.88
2022-12-15T13:48:38.930Z,59.89
2022-12-15T13:51:25.589Z,59.90
2022-12-15T13:54:00.465Z,59.77
2022-12-15T13:56:45.991Z,59.79
2022-12-15T13:59:25.932Z,59.81
2022-12-15T14:01:54.675Z,59.76
2022-12-15T14:04:23.785Z,59.71
2022-12-15T14:06:55.596Z,59.83
2022-12-15T14:09:29.181Z,59.80
2022-12-15T14:11:59.270Z,59.95
2022-12-15T14:14:31.530Z,59.91
2022-12-15T14:17:02.262Z,59.91
2022-12-15T14:19:41.593Z,59.99
2022-12-15T14:22:28.496Z,60.06
2022-12-15T14:25:03.305Z,60.02
2022-12-15T14:27:33.377Z,60.23
2022-12-15T14:30:19.766Z,60.24
2022-12-15T14:32:52.626Z,60.46
2022-12-15T14:35:27.019Z,60.45
2022-12-15T14:37:58.142Z,60.47
2022-12-15T14:43:21.305Z,60.51
2022-12-15T14:45:54.725Z,60.52
2022-12-15T14:48:41.027Z,60.75
2022-12-15T14:51:11.461Z,61.12
2022-12-15T14:53:42.682Z,61.43
2022-12-15T14:56:16.201Z,60.97
2022-12-15T14:58:44.959Z,61.02
2022-12-15T15:01:26.690Z,60.76
2022-12-15T15:03:08.023Z,59.21
2022-12-15T15:03:13.495Z,60.33
2022-12-15T15:03:59.501Z,60.31
2022-12-15T15:06:39.638Z,60.41
2022-12-15T15:09:25.861Z,60.29
2022-12-15T15:11:56.879Z,59.96
2022-12-15T15:14:28.799Z,59.80
2022-12-15T15:17:05.350Z,59.60
2022-12-15T15:19:39.415Z,59.43
2022-12-15T15:22:25.325Z,59.36
2022-12-15T15:24:53.752Z,59.03
2022-12-15T15:27:34.243Z,59.26
2022-12-15T15:30:21.851Z,59.01
2022-12-15T15:32:53.984Z,58.89
2022-12-15T15:35:23.159Z,58.87
2022-12-15T15:37:52.814Z,58.92
2022-12-15T15:40:24.122Z,59.00
2022-12-15T15:42:52.237Z,58.95
2022-12-15T15:45:20.388Z,59.07
2022-12-15T15:47:56.180Z,59.27
2022-12-15T15:50:30.619Z,59.33
2022-12-15T15:52:59.645Z,59.42
2022-12-15T15:55:33.646Z,59.53
2022-12-15T15:58:11.801Z,59.38
2022-12-15T16:00:41.257Z,59.59
2022-12-15T16:03:16.568Z,59.80
2022-12-15T16:05:45.193Z,59.77
2022-12-15T16:08:16.573Z,60.03
2022-12-15T16:10:47.266Z,60.08
2022-12-15T16:13:22.420Z,60.14
2022-12-15T16:15:54.297Z,60.04
2022-12-15T16:18:24.128Z,60.16
2022-12-15T16:20:53.223Z,60.00
2022-12-15T16:23:24.167Z,60.12
2022-12-15T16:25:55.509Z,60.12
2022-12-15T16:28:25.292Z,60.17
2022-12-15T16:30:53.948Z,60.16
2022-12-15T16:33:23.552Z,60.29
2022-12-15T16:35:53.125Z,60.35
2022-12-15T16:38:29.669Z,60.06
2022-12-15T16:41:05.442Z,60.16
2022-12-15T16:43:38.238Z,59.99
2022-12-15T16:46:11.524Z,59.93
2022-12-15T16:48:41.190Z,60.00
2022-12-15T16:51:11.380Z,60.00
2022-12-15T16:53:42.607Z,60.28
2022-12-15T16:56:15.953Z,59.94
2022-12-15T16:58:48.754Z,60.16
2022-12-15T17:01:22.158Z,59.96
2022-12-15T17:03:52.077Z,60.00
2022-12-15T17:06:20.378Z,60.20
2022-12-15T17:08:52.473Z,60.54
2022-12-15T17:11:25.683Z,60.88
2022-12-15T17:13:56.953Z,60.64
2022-12-15T17:16:26.962Z,60.40
2022-12-15T17:18:56.876Z,60.09
2022-12-15T17:21:28.086Z,60.02
2022-12-15T17:23:58.798Z,59.82
2022-12-15T17:26:30.413Z,59.72
2022-12-15T17:29:02.798Z,59.50
2022-12-15T17:31:35.513Z,59.45
2022-12-15T17:34:25.519Z,59.17
2022-12-15T17:36:54.115Z,58.97
2022-12-15T17:39:23.709Z,58.83
2022-12-15T17:42:00.893Z,58.89
2022-12-15T17:44:37.351Z,58.85
2022-12-15T17:47:09.074Z,58.59
2022-12-15T17:49:39.367Z,58.58
2022-12-15T17:52:16.347Z,58.48
2022-12-15T17:54:44.906Z,58.32
2022-12-15T17:57:13.663Z,58.18
2022-12-15T17:59:41.859Z,58.00
2022-12-15T18:02:13.215Z,57.92
2022-12-15T18:04:43.965Z,57.82
2022-12-15T18:07:19.534Z,57.92
2022-12-15T18:09:48.856Z,57.91
2022-12-15T18:12:22.539Z,57.73
2022-12-15T18:14:51.840Z,57.82
2022-12-15T18:17:20.173Z,57.97
2022-12-15T18:19:50.189Z,57.86
2022-12-15T18:22:22.265Z,57.99
2022-12-15T18:24:52.059Z,57.88
2022-12-15T18:27:23.579Z,57.65
2022-12-15T18:29:52.539Z,57.96
2022-12-15T18:32:24.069Z,57.74
2022-12-15T18:34:54.256Z,57.73
2022-12-15T18:37:25.098Z,57.75
2022-12-15T18:40:04.868Z,57.48
2022-12-15T18:42:33.712Z,57.58
2022-12-15T18:45:05.059Z,57.33
2022-12-15T18:47:38.217Z,57.15
2022-12-15T18:50:19.717Z,57.12
2022-12-15T18:52:49.822Z,57.19
2022-12-15T18:55:21.418Z,57.12
2022-12-15T18:57:51.082Z,56.80
2022-12-15T19:00:25.425Z,56.50
2022-12-15T19:02:55.021Z,56.69
2022-12-15T19:05:29.580Z,56.72
2022-12-15T19:08:00.389Z,56.67
2022-12-15T19:10:30.898Z,56.69
2022-12-15T19:12:59.259Z,56.54
2022-12-15T19:15:27.585Z,56.38
2022-12-15T19:18:13.623Z,56.68
2022-12-15T19:21:01.377Z,56.73
2022-12-15T19:23:29.691Z,56.88
2022-12-15T19:26:01.166Z,56.86
2022-12-15T19:28:29.307Z,56.92
2022-12-15T19:30:57.468Z,56.75
2022-12-15T19:33:26.134Z,56.96
2022-12-15T19:35:58.446Z,56.80
2022-12-15T19:38:44.350Z,56.82
2022-12-15T19:41:16.806Z,56.52
2022-12-15T19:43:46.310Z,56.70
2022-12-15T19:46:17.370Z,56.48
2022-12-15T19:48:46.577Z,56.54
2022-12-15T19:51:18.577Z,56.28
2022-12-15T19:53:48.512Z,56.29
2022-12-15T19:56:20.655Z,56.12
2022-12-15T19:58:49.609Z,55.95
2022-12-15T20:01:21.310Z,56.24
2022-12-15T20:03:52.489Z,55.78
2022-12-15T20:06:24.997Z,55.88
2022-12-15T20:08:56.259Z,56.01
2022-12-15T20:11:26.581Z,56.04
2022-12-15T20:13:56.182Z,56.10
2022-12-15T20:16:25.489Z,56.04
2022-12-15T20:18:56.236Z,55.91
2022-12-15T20:21:31.641Z,56.10
2022-12-15T20:24:02.401Z,56.09
2022-12-15T20:26:31.796Z,56.17
2022-12-15T20:29:00.260Z,56.18
2022-12-15T20:31:28.574Z,56.12
2022-12-15T20:33:56.963Z,55.95
2022-12-15T20:36:28.150Z,55.96
2022-12-15T20:38:57.624Z,55.94
2022-12-15T20:41:28.721Z,55.83
2022-12-15T20:43:57.839Z,55.91
2022-12-15T20:46:28.850Z,55.63
2022-12-15T20:48:57.712Z,55.82
2022-12-15T20:51:29.857Z,55.61
2022-12-15T20:53:59.723Z,55.59
2022-12-15T20:56:28.926Z,55.32
2022-12-15T20:58:58.636Z,55.27
2022-12-15T21:01:31.847Z,55.17
2022-12-15T21:04:02.386Z,55.26
2022-12-15T21:06:32.136Z,54.96
2022-12-15T21:09:00.573Z,55.16
2022-12-15T21:11:32.495Z,55.26
2022-12-15T21:14:04.224Z,55.35
2022-12-15T21:16:33.902Z,55.35
2022-12-15T21:19:19.929Z,55.62
2022-12-15T21:21:55.500Z,55.71
2022-12-15T21:24:26.473Z,55.84
2022-12-15T21:26:55.248Z,55.68
2022-12-15T21:29:25.186Z,55.97
2022-12-15T21:31:53.367Z,56.07
2022-12-15T21:34:21.708Z,56.15
2022-12-15T21:36:55.052Z,56.21
2022-12-15T21:39:29.470Z,56.48
2022-12-15T21:42:00.143Z,56.34
2022-12-15T21:44:28.481Z,56.46
2022-12-15T21:46:56.524Z,56.46
2022-12-15T21:49:24.358Z,56.50
2022-12-15T21:51:56.366Z,56.72
2022-12-15T21:54:30.964Z,56.54
2022-12-15T21:56:59.810Z,56.58
2022-12-15T21:59:30.693Z,56.62
2022-12-15T22:02:00.912Z,56.67
2022-12-15T22:04:31.607Z,57.03
2022-12-15T22:07:01.618Z,56.76
2022-12-15T22:09:29.838Z,56.80
2022-12-15T22:11:58.130Z,57.08
2022-12-15T22:14:29.335Z,57.02
2022-12-15T22:16:58.696Z,57.15
2022-12-15T22:19:27.126Z,57.17
2022-12-15T22:21:55.288Z,57.15
2022-12-15T22:24:24.781Z,57.12
2022-12-15T22:26:52.932Z,57.12
2022-12-15T22:29:23.258Z,57.14
2022-12-15T22:31:52.075Z,57.09
2022-12-15T22:34:22.107Z,57.27
2022-12-15T22:36:51.876Z,56.91
2022-12-15T22:39:20.277Z,56.97
2022-12-15T22:41:51.669Z,57.14
2022-12-15T22:44:23.737Z,57.09
2022-12-15T22:46:54.373Z,57.06
2022-12-15T22:49:25.674Z,57.09
2022-12-15T22:51:55.016Z,57.11
2022-12-15T22:54:26.015Z,57.19
2022-12-15T22:56:58.514Z,57.14
2022-12-15T22:59:32.259Z,57.08
2022-12-15T23:02:02.738Z,57.19
2022-12-15T23:04:31.450Z,57.27
2022-12-15T23:07:01.215Z,57.41
2022-12-15T23:09:30.007Z,57.37
2022-12-15T23:11:59.175Z,57.43
2022-12-15T23:14:42.095Z,57.38
2022-12-15T23:17:10.379Z,57.51
2022-12-15T23:19:38.758Z,57.56
2022-12-15T23:22:06.865Z,57.49
2022-12-15T23:24:35.329Z,57.52
2022-12-15T23:27:04.940Z,57.67
2022-12-15T23:29:33.204Z,57.71
2022-12-15T23:32:01.577Z,57.81
2022-12-15T23:34:29.597Z,57.93
2022-12-15T23:36:57.706Z,58.01
2022-12-15T23:39:25.720Z,58.02
2022-12-15T23:41:53.767Z,57.84
2022-12-15T23:44:23.237Z,57.97
2022-12-15T23:46:51.386Z,57.96
2022-12-15T23:49:19.842Z,58.08
2022-12-15T23:51:48.369Z,58.03
2022-12-15T23:54:16.738Z,58.03
2022-12-15T23:56:44.797Z,57.98
2022-12-15T23:59:13.724Z,58.17
